ADDS METAR Data INFO
IDs: Format: Raw Decoded Include TAF

Data at: 1431 UTC 20 Sep 2017

KDHT 201353Z AUTO 35013KT 10SM CLR 13/02 A3000 RMK AO2 SLP114 T01330017
KDHT 201253Z AUTO 34009KT 10SM CLR 10/03 A2996 RMK AO2 SLP101 T01000033
KDHT 201153Z AUTO 33009KT 10SM CLR 11/04 A2994 RMK AO2 SLP087 7//// T01060039 10172 20106 51032
KDHT 201053Z AUTO 35011KT 10SM CLR 12/04 A2992 RMK AO2 SLP074 T01220044
KDHT 200953Z AUTO 01013KT 10SM CLR 14/04 A2991 RMK AO2 PK WND 04029/0918 WSHFT 0856 SLP068 T01390044
KDHT 200916Z AUTO 03023G28KT 10SM CLR 16/04 A2987 RMK AO2 PK WND 03028/0916 WSHFT 0856 T01560039
KDHT 200853Z AUTO 31008KT 10SM CLR 14/03 A2983 RMK AO2 SLP039 T01440033 53006
KDHT 200753Z AUTO 24007KT 7SM CLR 13/03 A2981 RMK AO2 SLP037 T01280033
KDHT 200653Z AUTO 27008KT 6SM HZ CLR 15/03 A2981 RMK AO2 SLP032 T01500033
KDHT 200553Z AUTO 23009KT 10SM CLR 13/06 A2981 RMK AO2 SLP038 T01280056 10311 20128 403440106 53012
KDHT 200453Z AUTO 21006KT 10SM CLR 16/05 A2979 RMK AO2 SLP030 T01610050
KDHT 200353Z AUTO 22009KT 10SM CLR 18/04 A2978 RMK AO2 SLP031 T01780039
KDHT 200253Z AUTO 23007KT 10SM CLR 21/03 A2977 RMK AO2 SLP028 T02110028 53015
KDHT 200153Z AUTO 21009KT 7SM CLR 23/02 A2974 RMK AO2 SLP020 T02330022
KDHT 200053Z AUTO 23010KT 10SM CLR 26/00 A2973 RMK AO2 PK WND 23026/0001 SLP018 T02610000
KDHT 192353Z AUTO 23020G26KT 10SM CLR 31/M03 A2972 RMK AO2 PK WND 21032/2257 SLP009 6//// T03061028 10344 20306 56013
KDHT 192253Z AUTO 21023G31KT 10SM CLR 34/M02 A2973 RMK AO2 PK WND 21033/2159 SLP004 T03391022
KDHT 192153Z AUTO 21025G34KT 10SM CLR 33/M02 A2974 RMK AO2 PK WND 22036/2056 SLP005 T03331022
KDHT 192053Z AUTO 21023G34KT 10SM CLR 34/M04 A2976 RMK AO2 PK WND 22036/2028 SLP011 6//// T03391039 56024
KDHT 191953Z AUTO 22022G33KT 10SM CLR 34/M04 A2979 RMK AO2 PK WND 23037/1934 SLP020 T03391039
KDHT 191853Z AUTO CLR 33/M03 A2981 RMK AO2 SLP030 T03331033 PWINO PNO $
KDHT 191753Z AUTO 22025G35KT 10SM CLR 32/M02 A2984 RMK AO2 PK WND 23036/1713 SLP045 T03171022 10317 20106 58012
KDHT 191653Z AUTO 22025G31KT 10SM CLR 30/M01 A2986 RMK AO2 PK WND 21031/1650 SLP051 T03001006
KDHT 191553Z AUTO 21013KT 10SM CLR 26/08 A2988 RMK AO2 SLP062 T02560078
KDHT 191453Z AUTO 21009KT 10SM CLR 21/11 A2988 RMK AO2 SLP068 T02060106 58002
KDHT 191353Z AUTO 21006KT 10SM CLR 15/12 A2989 RMK AO2 SLP077 T01500122
KDHT 191253Z AUTO 17006KT 6SM BR CLR 12/11 A2989 RMK AO2 SLP076 T01170106
KDHT 191153Z AUTO 23007KT 8SM CLR 13/12 A2989 RMK AO2 SLP069 T01280122 10183 20128 55001
KDHT 191053Z AUTO 18011KT 10SM CLR 16/14 A2988 RMK AO2 SLP060 T01610139
KDHT 190953Z AUTO 17010KT 9SM CLR 17/15 A2989 RMK AO2 SLP058 T01720150
KDHT 190853Z AUTO 18009KT 9SM CLR 18/16 A2989 RMK AO2 SLP061 T01780156 58017
KDHT 190753Z AUTO 17011KT 8SM CLR 18/16 A2992 RMK AO2 SLP072 T01780161
KDHT 190653Z AUTO 17009KT 9SM CLR 18/16 A2994 RMK AO2 SLP081 T01780156
KDHT 190553Z AUTO 17007KT 8SM CLR 16/14 A2995 RMK AO2 SLP090 T01560139 10294 20156 403110150 50000
KDHT 190453Z AUTO 16007KT 9SM CLR 18/14 A2995 RMK AO2 SLP093 T01780144
KDHT 190353Z AUTO 16005KT 10SM CLR 19/14 A2996 RMK AO2 SLP095 T01890139
KDHT 190253Z AUTO 15008KT 10SM CLR 20/13 A2995 RMK AO2 SLP094 T02000128 55003